sensor_id;sensor_type;location;lat;lon;timestamp;P1;durP1;ratioP1;P2;durP2;ratioP2
68247;SDS011;55064;49.636;12.164;2022-08-11T00:01:44;7.50;;;4.32;;
68247;SDS011;55064;49.636;12.164;2022-08-11T00:04:13;8.47;;;4.60;;
68247;SDS011;55064;49.636;12.164;2022-08-11T00:06:42;9.05;;;4.35;;
68247;SDS011;55064;49.636;12.164;2022-08-11T00:09:15;7.53;;;4.07;;
68247;SDS011;55064;49.636;12.164;2022-08-11T00:11:47;8.32;;;4.53;;
68247;SDS011;55064;49.636;12.164;2022-08-11T00:14:22;8.35;;;4.80;;
68247;SDS011;55064;49.636;12.164;2022-08-11T00:19:21;7.25;;;4.47;;
68247;SDS011;55064;49.636;12.164;2022-08-11T00:21:53;9.02;;;4.97;;
68247;SDS011;55064;49.636;12.164;2022-08-11T00:24:20;7.30;;;4.50;;
68247;SDS011;55064;49.636;12.164;2022-08-11T00:26:48;7.03;;;4.15;;
68247;SDS011;55064;49.636;12.164;2022-08-11T00:29:19;6.83;;;4.20;;
68247;SDS011;55064;49.636;12.164;2022-08-11T00:31:47;8.43;;;4.25;;
68247;SDS011;55064;49.636;12.164;2022-08-11T00:34:27;7.95;;;4.57;;
68247;SDS011;55064;49.636;12.164;2022-08-11T00:39:24;7.35;;;4.55;;
68247;SDS011;55064;49.636;12.164;2022-08-11T00:41:57;7.33;;;4.50;;
68247;SDS011;55064;49.636;12.164;2022-08-11T01:09:08;8.27;;;5.10;;
68247;SDS011;55064;49.636;12.164;2022-08-11T01:11:54;9.48;;;4.78;;
68247;SDS011;55064;49.636;12.164;2022-08-11T01:18:15;8.05;;;4.63;;
68247;SDS011;55064;49.636;12.164;2022-08-11T01:39:45;8.25;;;3.10;;
68247;SDS011;55064;49.636;12.164;2022-08-11T01:45:41;6.97;;;3.40;;
68247;SDS011;55064;49.636;12.164;2022-08-11T02:07:15;9.52;;;4.70;;
68247;SDS011;55064;49.636;12.164;2022-08-11T02:12:53;7.97;;;4.40;;
68247;SDS011;55064;49.636;12.164;2022-08-11T02:18:23;6.50;;;3.53;;
68247;SDS011;55064;49.636;12.164;2022-08-11T02:21:21;8.60;;;3.72;;
68247;SDS011;55064;49.636;12.164;2022-08-11T02:24:13;9.05;;;3.95;;
68247;SDS011;55064;49.636;12.164;2022-08-11T02:26:54;9.30;;;3.88;;
68247;SDS011;55064;49.636;12.164;2022-08-11T02:29:50;6.97;;;3.83;;
68247;SDS011;55064;49.636;12.164;2022-08-11T02:33:15;8.73;;;4.13;;
68247;SDS011;55064;49.636;12.164;2022-08-11T02:41:25;7.13;;;3.90;;
68247;SDS011;55064;49.636;12.164;2022-08-11T02:46:49;7.13;;;4.00;;
68247;SDS011;55064;49.636;12.164;2022-08-11T02:52:24;7.80;;;4.13;;
68247;SDS011;55064;49.636;12.164;2022-08-11T02:55:16;7.57;;;4.20;;
68247;SDS011;55064;49.636;12.164;2022-08-11T03:00:26;7.03;;;4.37;;
68247;SDS011;55064;49.636;12.164;2022-08-11T03:11:25;7.88;;;4.10;;
68247;SDS011;55064;49.636;12.164;2022-08-11T03:14:26;8.47;;;4.30;;
68247;SDS011;55064;49.636;12.164;2022-08-11T03:17:28;11.98;;;3.80;;
68247;SDS011;55064;49.636;12.164;2022-08-11T03:22:59;15.30;;;4.75;;
68247;SDS011;55064;49.636;12.164;2022-08-11T03:25:33;8.90;;;4.50;;
68247;SDS011;55064;49.636;12.164;2022-08-11T03:50:34;7.65;;;4.10;;
68247;SDS011;55064;49.636;12.164;2022-08-11T04:21:56;9.05;;;4.53;;
68247;SDS011;55064;49.636;12.164;2022-08-11T04:24:30;8.37;;;4.33;;
68247;SDS011;55064;49.636;12.164;2022-08-11T04:35:44;8.68;;;4.65;;
68247;SDS011;55064;49.636;12.164;2022-08-11T04:41:22;9.73;;;4.75;;
68247;SDS011;55064;49.636;12.164;2022-08-11T04:54:07;9.47;;;5.30;;
68247;SDS011;55064;49.636;12.164;2022-08-11T04:57:19;10.05;;;5.00;;
68247;SDS011;55064;49.636;12.164;2022-08-11T05:00:17;8.60;;;4.90;;
68247;SDS011;55064;49.636;12.164;2022-08-11T05:14:40;8.98;;;4.95;;
68247;SDS011;55064;49.636;12.164;2022-08-11T05:17:35;8.15;;;4.90;;
68247;SDS011;55064;49.636;12.164;2022-08-11T05:20:48;8.95;;;5.38;;
68247;SDS011;55064;49.636;12.164;2022-08-11T05:23:34;9.10;;;5.50;;
68247;SDS011;55064;49.636;12.164;2022-08-11T05:26:22;9.45;;;5.57;;
68247;SDS011;55064;49.636;12.164;2022-08-11T05:29:23;10.02;;;5.38;;
68247;SDS011;55064;49.636;12.164;2022-08-11T05:32:11;8.27;;;4.95;;
68247;SDS011;55064;49.636;12.164;2022-08-11T05:34:58;8.55;;;5.28;;
68247;SDS011;55064;49.636;12.164;2022-08-11T05:39:57;9.93;;;5.67;;
68247;SDS011;55064;49.636;12.164;2022-08-11T05:42:50;9.02;;;5.15;;
68247;SDS011;55064;49.636;12.164;2022-08-11T05:45:39;11.05;;;5.28;;
68247;SDS011;55064;49.636;12.164;2022-08-11T05:48:27;10.13;;;4.88;;
68247;SDS011;55064;49.636;12.164;2022-08-11T05:51:14;11.55;;;5.00;;
68247;SDS011;55064;49.636;12.164;2022-08-11T05:53:59;9.13;;;5.07;;
68247;SDS011;55064;49.636;12.164;2022-08-11T05:56:48;9.20;;;4.70;;
68247;SDS011;55064;49.636;12.164;2022-08-11T05:59:20;9.50;;;5.22;;
68247;SDS011;55064;49.636;12.164;2022-08-11T06:01:47;8.00;;;5.03;;
68247;SDS011;55064;49.636;12.164;2022-08-11T06:04:20;9.60;;;4.93;;
68247;SDS011;55064;49.636;12.164;2022-08-11T06:09:45;7.80;;;4.60;;
68247;SDS011;55064;49.636;12.164;2022-08-11T06:12:20;10.75;;;4.97;;
68247;SDS011;55064;49.636;12.164;2022-08-11T06:14:55;9.88;;;5.10;;
68247;SDS011;55064;49.636;12.164;2022-08-11T06:17:29;7.80;;;4.90;;
68247;SDS011;55064;49.636;12.164;2022-08-11T06:20:03;9.47;;;4.87;;
68247;SDS011;55064;49.636;12.164;2022-08-11T06:22:31;7.60;;;4.75;;
68247;SDS011;55064;49.636;12.164;2022-08-11T06:25:02;8.25;;;5.00;;
68247;SDS011;55064;49.636;12.164;2022-08-11T06:27:35;10.13;;;6.65;;
68247;SDS011;55064;49.636;12.164;2022-08-11T06:30:04;10.73;;;5.47;;
68247;SDS011;55064;49.636;12.164;2022-08-11T06:32:43;9.00;;;4.80;;
68247;SDS011;55064;49.636;12.164;2022-08-11T06:38:11;8.77;;;4.65;;
68247;SDS011;55064;49.636;12.164;2022-08-11T06:41:02;8.60;;;4.80;;
68247;SDS011;55064;49.636;12.164;2022-08-11T06:46:37;8.47;;;4.50;;
68247;SDS011;55064;49.636;12.164;2022-08-11T06:49:07;9.05;;;5.00;;
68247;SDS011;55064;49.636;12.164;2022-08-11T06:52:04;11.88;;;4.72;;
68247;SDS011;55064;49.636;12.164;2022-08-11T06:54:35;7.93;;;4.32;;
68247;SDS011;55064;49.636;12.164;2022-08-11T06:57:05;8.55;;;4.68;;
68247;SDS011;55064;49.636;12.164;2022-08-11T06:59:51;7.10;;;4.10;;
68247;SDS011;55064;49.636;12.164;2022-08-11T07:02:37;7.75;;;4.22;;
68247;SDS011;55064;49.636;12.164;2022-08-11T07:05:09;6.80;;;4.00;;
68247;SDS011;55064;49.636;12.164;2022-08-11T07:14:04;7.10;;;3.93;;
68247;SDS011;55064;49.636;12.164;2022-08-11T07:16:50;7.70;;;3.67;;
68247;SDS011;55064;49.636;12.164;2022-08-11T07:19:19;12.07;;;3.85;;
68247;SDS011;55064;49.636;12.164;2022-08-11T07:22:06;7.72;;;3.90;;
68247;SDS011;55064;49.636;12.164;2022-08-11T07:25:00;8.05;;;4.03;;
68247;SDS011;55064;49.636;12.164;2022-08-11T07:28:02;11.57;;;3.87;;
68247;SDS011;55064;49.636;12.164;2022-08-11T07:30:55;6.88;;;3.70;;
68247;SDS011;55064;49.636;12.164;2022-08-11T07:33:31;8.52;;;3.95;;
68247;SDS011;55064;49.636;12.164;2022-08-11T07:36:05;7.60;;;3.92;;
68247;SDS011;55064;49.636;12.164;2022-08-11T07:38:57;6.32;;;3.78;;
68247;SDS011;55064;49.636;12.164;2022-08-11T07:41:32;7.53;;;3.70;;
68247;SDS011;55064;49.636;12.164;2022-08-11T07:44:01;6.22;;;3.47;;
68247;SDS011;55064;49.636;12.164;2022-08-11T07:46:37;6.72;;;4.00;;
68247;SDS011;55064;49.636;12.164;2022-08-11T07:49:25;6.88;;;3.35;;
68247;SDS011;55064;49.636;12.164;2022-08-11T07:52:12;6.25;;;3.70;;
68247;SDS011;55064;49.636;12.164;2022-08-11T07:57:38;5.95;;;2.63;;
68247;SDS011;55064;49.636;12.164;2022-08-11T08:00:23;5.75;;;2.75;;
68247;SDS011;55064;49.636;12.164;2022-08-11T08:03:11;6.15;;;2.90;;
68247;SDS011;55064;49.636;12.164;2022-08-11T08:05:57;5.88;;;2.80;;
68247;SDS011;55064;49.636;12.164;2022-08-11T08:08:41;5.63;;;2.60;;
68247;SDS011;55064;49.636;12.164;2022-08-11T08:11:25;6.05;;;2.40;;
68247;SDS011;55064;49.636;12.164;2022-08-11T08:14:09;7.72;;;2.70;;
68247;SDS011;55064;49.636;12.164;2022-08-11T08:16:54;10.30;;;2.63;;
68247;SDS011;55064;49.636;12.164;2022-08-11T08:19:42;5.50;;;2.75;;
68247;SDS011;55064;49.636;12.164;2022-08-11T08:22:11;5.87;;;2.40;;
68247;SDS011;55064;49.636;12.164;2022-08-11T08:24:43;5.95;;;2.60;;
68247;SDS011;55064;49.636;12.164;2022-08-11T08:27:12;4.88;;;2.38;;
68247;SDS011;55064;49.636;12.164;2022-08-11T08:29:40;6.30;;;2.45;;
68247;SDS011;55064;49.636;12.164;2022-08-11T08:32:49;4.65;;;2.15;;
68247;SDS011;55064;49.636;12.164;2022-08-11T08:35:21;6.07;;;2.50;;
68247;SDS011;55064;49.636;12.164;2022-08-11T08:37:48;7.57;;;2.30;;
68247;SDS011;55064;49.636;12.164;2022-08-11T08:40:15;5.18;;;2.30;;
68247;SDS011;55064;49.636;12.164;2022-08-11T08:42:44;6.97;;;2.60;;
68247;SDS011;55064;49.636;12.164;2022-08-11T08:45:22;7.28;;;2.60;;
68247;SDS011;55064;49.636;12.164;2022-08-11T08:47:59;5.47;;;2.30;;
68247;SDS011;55064;49.636;12.164;2022-08-11T08:50:28;6.20;;;2.30;;
68247;SDS011;55064;49.636;12.164;2022-08-11T08:53:23;4.72;;;2.50;;
68247;SDS011;55064;49.636;12.164;2022-08-11T08:55:55;5.53;;;2.25;;
68247;SDS011;55064;49.636;12.164;2022-08-11T08:58:23;5.55;;;2.40;;
68247;SDS011;55064;49.636;12.164;2022-08-11T09:00:51;6.23;;;2.60;;
68247;SDS011;55064;49.636;12.164;2022-08-11T09:03:20;5.82;;;2.40;;
68247;SDS011;55064;49.636;12.164;2022-08-11T09:05:52;5.53;;;2.60;;
68247;SDS011;55064;49.636;12.164;2022-08-11T09:08:21;6.38;;;2.38;;
68247;SDS011;55064;49.636;12.164;2022-08-11T09:10:50;5.80;;;2.38;;
68247;SDS011;55064;49.636;12.164;2022-08-11T09:13:36;6.50;;;2.40;;
68247;SDS011;55064;49.636;12.164;2022-08-11T09:16:06;6.13;;;2.55;;
68247;SDS011;55064;49.636;12.164;2022-08-11T09:18:41;6.28;;;2.80;;
68247;SDS011;55064;49.636;12.164;2022-08-11T09:21:11;5.95;;;2.55;;
68247;SDS011;55064;49.636;12.164;2022-08-11T09:23:41;5.13;;;2.40;;
68247;SDS011;55064;49.636;12.164;2022-08-11T09:26:29;5.30;;;2.40;;
68247;SDS011;55064;49.636;12.164;2022-08-11T09:29:16;5.00;;;2.60;;
68247;SDS011;55064;49.636;12.164;2022-08-11T09:31:44;5.55;;;2.40;;
68247;SDS011;55064;49.636;12.164;2022-08-11T09:34:10;4.90;;;2.35;;
68247;SDS011;55064;49.636;12.164;2022-08-11T09:36:39;5.43;;;2.50;;
68247;SDS011;55064;49.636;12.164;2022-08-11T09:39:26;5.00;;;2.37;;
68247;SDS011;55064;49.636;12.164;2022-08-11T09:42:15;5.78;;;2.47;;
68247;SDS011;55064;49.636;12.164;2022-08-11T09:44:44;6.05;;;2.80;;
68247;SDS011;55064;49.636;12.164;2022-08-11T09:49:45;5.78;;;2.60;;
68247;SDS011;55064;49.636;12.164;2022-08-11T09:52:13;5.17;;;2.80;;
68247;SDS011;55064;49.636;12.164;2022-08-11T09:54:42;5.00;;;2.60;;
68247;SDS011;55064;49.636;12.164;2022-08-11T09:57:10;5.40;;;2.72;;
68247;SDS011;55064;49.636;12.164;2022-08-11T09:59:54;6.00;;;2.72;;
68247;SDS011;55064;49.636;12.164;2022-08-11T10:02:24;5.07;;;2.50;;
68247;SDS011;55064;49.636;12.164;2022-08-11T10:04:55;7.20;;;2.33;;
68247;SDS011;55064;49.636;12.164;2022-08-11T10:07:41;5.43;;;2.70;;
68247;SDS011;55064;49.636;12.164;2022-08-11T10:10:14;5.32;;;2.67;;
68247;SDS011;55064;49.636;12.164;2022-08-11T10:12:51;9.50;;;2.83;;
68247;SDS011;55064;49.636;12.164;2022-08-11T10:15:22;8.80;;;2.78;;
68247;SDS011;55064;49.636;12.164;2022-08-11T10:18:05;5.20;;;2.47;;
68247;SDS011;55064;49.636;12.164;2022-08-11T10:20:51;5.60;;;2.90;;
68247;SDS011;55064;49.636;12.164;2022-08-11T10:23:26;5.45;;;2.60;;
68247;SDS011;55064;49.636;12.164;2022-08-11T10:26:13;6.50;;;3.00;;
68247;SDS011;55064;49.636;12.164;2022-08-11T10:28:58;6.75;;;2.50;;
68247;SDS011;55064;49.636;12.164;2022-08-11T10:31:26;7.38;;;3.05;;
68247;SDS011;55064;49.636;12.164;2022-08-11T10:34:10;5.57;;;2.70;;
68247;SDS011;55064;49.636;12.164;2022-08-11T10:36:41;8.10;;;2.67;;
68247;SDS011;55064;49.636;12.164;2022-08-11T10:39:17;6.83;;;2.40;;
68247;SDS011;55064;49.636;12.164;2022-08-11T10:41:45;5.25;;;2.58;;
68247;SDS011;55064;49.636;12.164;2022-08-11T10:44:31;5.13;;;2.50;;
68247;SDS011;55064;49.636;12.164;2022-08-11T10:47:06;5.13;;;2.80;;
68247;SDS011;55064;49.636;12.164;2022-08-11T10:49:54;8.60;;;2.60;;
68247;SDS011;55064;49.636;12.164;2022-08-11T10:52:40;5.27;;;2.33;;
68247;SDS011;55064;49.636;12.164;2022-08-11T10:55:25;6.33;;;2.30;;
68247;SDS011;55064;49.636;12.164;2022-08-11T10:58:11;6.38;;;2.60;;
68247;SDS011;55064;49.636;12.164;2022-08-11T11:00:56;6.35;;;2.70;;
68247;SDS011;55064;49.636;12.164;2022-08-11T11:03:24;7.80;;;2.70;;
68247;SDS011;55064;49.636;12.164;2022-08-11T11:05:52;5.05;;;2.53;;
68247;SDS011;55064;49.636;12.164;2022-08-11T11:08:29;6.90;;;2.80;;
68247;SDS011;55064;49.636;12.164;2022-08-11T11:11:14;8.38;;;3.03;;
68247;SDS011;55064;49.636;12.164;2022-08-11T11:13:46;6.03;;;2.33;;
68247;SDS011;55064;49.636;12.164;2022-08-11T11:16:36;4.93;;;2.10;;
68247;SDS011;55064;49.636;12.164;2022-08-11T11:19:26;5.82;;;2.30;;
68247;SDS011;55064;49.636;12.164;2022-08-11T11:21:53;6.70;;;2.67;;
68247;SDS011;55064;49.636;12.164;2022-08-11T11:24:44;7.63;;;2.70;;
68247;SDS011;55064;49.636;12.164;2022-08-11T11:30:13;7.30;;;2.88;;
68247;SDS011;55064;49.636;12.164;2022-08-11T11:38:02;8.38;;;2.70;;
68247;SDS011;55064;49.636;12.164;2022-08-11T11:40:33;5.75;;;2.47;;
68247;SDS011;55064;49.636;12.164;2022-08-11T11:43:02;7.68;;;2.78;;
68247;SDS011;55064;49.636;12.164;2022-08-11T11:45:29;5.60;;;2.70;;
68247;SDS011;55064;49.636;12.164;2022-08-11T11:47:55;6.97;;;2.90;;
68247;SDS011;55064;49.636;12.164;2022-08-11T11:50:26;5.57;;;2.33;;
68247;SDS011;55064;49.636;12.164;2022-08-11T11:52:54;7.40;;;3.08;;
68247;SDS011;55064;49.636;12.164;2022-08-11T11:55:24;5.63;;;2.50;;
68247;SDS011;55064;49.636;12.164;2022-08-11T11:57:51;5.47;;;2.17;;
68247;SDS011;55064;49.636;12.164;2022-08-11T12:00:39;6.20;;;2.50;;
68247;SDS011;55064;49.636;12.164;2022-08-11T12:03:28;5.95;;;2.60;;
68247;SDS011;55064;49.636;12.164;2022-08-11T12:05:54;5.75;;;2.33;;
68247;SDS011;55064;49.636;12.164;2022-08-11T12:08:23;5.07;;;2.00;;
68247;SDS011;55064;49.636;12.164;2022-08-11T12:10:54;6.15;;;2.50;;
68247;SDS011;55064;49.636;12.164;2022-08-11T12:13:48;5.07;;;2.50;;
68247;SDS011;55064;49.636;12.164;2022-08-11T12:16:19;5.40;;;2.63;;
68247;SDS011;55064;49.636;12.164;2022-08-11T12:18:48;6.18;;;2.92;;
68247;SDS011;55064;49.636;12.164;2022-08-11T12:21:19;5.80;;;2.50;;
68247;SDS011;55064;49.636;12.164;2022-08-11T12:23:52;8.20;;;2.75;;
68247;SDS011;55064;49.636;12.164;2022-08-11T12:26:39;7.10;;;2.80;;
68247;SDS011;55064;49.636;12.164;2022-08-11T12:29:18;7.85;;;2.60;;
68247;SDS011;55064;49.636;12.164;2022-08-11T12:31:51;6.32;;;2.45;;
68247;SDS011;55064;49.636;12.164;2022-08-11T12:34:22;5.70;;;2.50;;
68247;SDS011;55064;49.636;12.164;2022-08-11T12:36:58;5.28;;;2.45;;
68247;SDS011;55064;49.636;12.164;2022-08-11T12:39:26;4.60;;;2.50;;
68247;SDS011;55064;49.636;12.164;2022-08-11T12:42:15;4.45;;;2.30;;
68247;SDS011;55064;49.636;12.164;2022-08-11T12:45:01;5.20;;;2.70;;
68247;SDS011;55064;49.636;12.164;2022-08-11T12:47:49;5.63;;;2.50;;
68247;SDS011;55064;49.636;12.164;2022-08-11T12:50:35;8.57;;;2.97;;
68247;SDS011;55064;49.636;12.164;2022-08-11T12:53:23;6.15;;;2.60;;
68247;SDS011;55064;49.636;12.164;2022-08-11T12:55:56;6.88;;;2.50;;
68247;SDS011;55064;49.636;12.164;2022-08-11T12:58:45;4.78;;;2.40;;
68247;SDS011;55064;49.636;12.164;2022-08-11T13:01:13;4.70;;;2.30;;
68247;SDS011;55064;49.636;12.164;2022-08-11T13:04:01;4.93;;;2.57;;
68247;SDS011;55064;49.636;12.164;2022-08-11T13:06:45;4.80;;;2.60;;
68247;SDS011;55064;49.636;12.164;2022-08-11T13:09:15;5.88;;;2.47;;
68247;SDS011;55064;49.636;12.164;2022-08-11T13:11:41;5.70;;;2.65;;
68247;SDS011;55064;49.636;12.164;2022-08-11T13:14:47;6.82;;;2.67;;
68247;SDS011;55064;49.636;12.164;2022-08-11T13:17:12;6.70;;;2.43;;
68247;SDS011;55064;49.636;12.164;2022-08-11T13:19:47;4.82;;;2.28;;
68247;SDS011;55064;49.636;12.164;2022-08-11T13:22:15;5.88;;;2.70;;
68247;SDS011;55064;49.636;12.164;2022-08-11T13:24:42;5.97;;;2.45;;
68247;SDS011;55064;49.636;12.164;2022-08-11T13:27:14;5.38;;;2.40;;
68247;SDS011;55064;49.636;12.164;2022-08-11T13:29:43;7.00;;;2.60;;
68247;SDS011;55064;49.636;12.164;2022-08-11T13:32:12;5.73;;;2.60;;
68247;SDS011;55064;49.636;12.164;2022-08-11T13:34:40;5.55;;;2.50;;
68247;SDS011;55064;49.636;12.164;2022-08-11T13:37:08;7.35;;;2.47;;
68247;SDS011;55064;49.636;12.164;2022-08-11T13:39:35;5.25;;;2.65;;
68247;SDS011;55064;49.636;12.164;2022-08-11T13:42:04;6.30;;;3.08;;
68247;SDS011;55064;49.636;12.164;2022-08-11T13:44:32;5.97;;;2.50;;
68247;SDS011;55064;49.636;12.164;2022-08-11T13:47:02;6.65;;;2.53;;
68247;SDS011;55064;49.636;12.164;2022-08-11T13:49:29;4.70;;;2.65;;
68247;SDS011;55064;49.636;12.164;2022-08-11T13:51:56;5.75;;;2.50;;
68247;SDS011;55064;49.636;12.164;2022-08-11T13:54:25;6.35;;;2.70;;
68247;SDS011;55064;49.636;12.164;2022-08-11T13:56:55;5.90;;;2.40;;
68247;SDS011;55064;49.636;12.164;2022-08-11T13:59:24;6.10;;;2.73;;
68247;SDS011;55064;49.636;12.164;2022-08-11T14:01:54;5.65;;;2.60;;
68247;SDS011;55064;49.636;12.164;2022-08-11T14:04:27;5.60;;;2.35;;
68247;SDS011;55064;49.636;12.164;2022-08-11T14:07:05;5.15;;;2.40;;
68247;SDS011;55064;49.636;12.164;2022-08-11T14:09:36;5.57;;;2.50;;
68247;SDS011;55064;49.636;12.164;2022-08-11T14:12:25;5.23;;;2.63;;
68247;SDS011;55064;49.636;12.164;2022-08-11T14:15:46;5.60;;;2.90;;
68247;SDS011;55064;49.636;12.164;2022-08-11T14:18:07;6.15;;;2.50;;
68247;SDS011;55064;49.636;12.164;2022-08-11T14:20:38;6.05;;;2.58;;
68247;SDS011;55064;49.636;12.164;2022-08-11T14:23:28;8.70;;;2.80;;
68247;SDS011;55064;49.636;12.164;2022-08-11T14:26:06;5.00;;;2.70;;
68247;SDS011;55064;49.636;12.164;2022-08-11T14:28:48;6.30;;;2.47;;
68247;SDS011;55064;49.636;12.164;2022-08-11T14:31:21;4.93;;;2.55;;
68247;SDS011;55064;49.636;12.164;2022-08-11T14:33:52;5.60;;;2.90;;
68247;SDS011;55064;49.636;12.164;2022-08-11T14:36:22;5.80;;;2.90;;
68247;SDS011;55064;49.636;12.164;2022-08-11T14:38:50;4.70;;;2.53;;
68247;SDS011;55064;49.636;12.164;2022-08-11T14:41:21;5.60;;;2.70;;
68247;SDS011;55064;49.636;12.164;2022-08-11T14:44:09;5.50;;;2.50;;
68247;SDS011;55064;49.636;12.164;2022-08-11T14:46:56;5.60;;;2.53;;
68247;SDS011;55064;49.636;12.164;2022-08-11T14:49:36;6.22;;;2.88;;
68247;SDS011;55064;49.636;12.164;2022-08-11T14:52:11;5.50;;;2.60;;
68247;SDS011;55064;49.636;12.164;2022-08-11T14:54:42;11.40;;;2.70;;
68247;SDS011;55064;49.636;12.164;2022-08-11T14:57:28;5.00;;;2.47;;
68247;SDS011;55064;49.636;12.164;2022-08-11T14:59:59;5.72;;;2.90;;
68247;SDS011;55064;49.636;12.164;2022-08-11T15:02:30;5.03;;;2.72;;
68247;SDS011;55064;49.636;12.164;2022-08-11T15:05:14;5.18;;;2.65;;
68247;SDS011;55064;49.636;12.164;2022-08-11T15:07:42;5.57;;;2.53;;
68247;SDS011;55064;49.636;12.164;2022-08-11T15:10:10;7.53;;;2.87;;
68247;SDS011;55064;49.636;12.164;2022-08-11T15:12:38;7.68;;;2.60;;
68247;SDS011;55064;49.636;12.164;2022-08-11T15:15:11;5.88;;;2.53;;
68247;SDS011;55064;49.636;12.164;2022-08-11T15:17:56;4.65;;;2.63;;
68247;SDS011;55064;49.636;12.164;2022-08-11T15:20:26;6.35;;;2.75;;
68247;SDS011;55064;49.636;12.164;2022-08-11T15:23:11;6.27;;;2.77;;
68247;SDS011;55064;49.636;12.164;2022-08-11T15:25:59;6.70;;;2.80;;
68247;SDS011;55064;49.636;12.164;2022-08-11T15:28:28;5.97;;;2.60;;
68247;SDS011;55064;49.636;12.164;2022-08-11T15:31:19;5.55;;;2.70;;
68247;SDS011;55064;49.636;12.164;2022-08-11T15:34:06;5.25;;;2.70;;
68247;SDS011;55064;49.636;12.164;2022-08-11T15:36:57;6.20;;;2.70;;
68247;SDS011;55064;49.636;12.164;2022-08-11T15:42:49;5.75;;;2.75;;
68247;SDS011;55064;49.636;12.164;2022-08-11T15:45:35;6.00;;;2.45;;
68247;SDS011;55064;49.636;12.164;2022-08-11T15:48:13;4.90;;;2.30;;
68247;SDS011;55064;49.636;12.164;2022-08-11T15:50:47;4.60;;;2.33;;
68247;SDS011;55064;49.636;12.164;2022-08-11T15:56:08;4.95;;;2.58;;
68247;SDS011;55064;49.636;12.164;2022-08-11T15:58:37;6.18;;;2.60;;
68247;SDS011;55064;49.636;12.164;2022-08-11T16:01:24;5.45;;;2.47;;
68247;SDS011;55064;49.636;12.164;2022-08-11T16:04:19;6.07;;;2.20;;
68247;SDS011;55064;49.636;12.164;2022-08-11T16:07:01;7.10;;;2.35;;
68247;SDS011;55064;49.636;12.164;2022-08-11T16:12:01;6.55;;;2.42;;
68247;SDS011;55064;49.636;12.164;2022-08-11T16:14:32;13.63;;;2.50;;
68247;SDS011;55064;49.636;12.164;2022-08-11T16:17:20;8.83;;;2.67;;
68247;SDS011;55064;49.636;12.164;2022-08-11T16:19:50;7.30;;;2.23;;
68247;SDS011;55064;49.636;12.164;2022-08-11T16:22:29;5.47;;;2.63;;
68247;SDS011;55064;49.636;12.164;2022-08-11T16:25:06;7.10;;;2.60;;
68247;SDS011;55064;49.636;12.164;2022-08-11T16:27:35;7.47;;;2.40;;
68247;SDS011;55064;49.636;12.164;2022-08-11T16:30:06;6.80;;;2.90;;
68247;SDS011;55064;49.636;12.164;2022-08-11T16:32:37;7.07;;;2.83;;
68247;SDS011;55064;49.636;12.164;2022-08-11T16:35:12;8.48;;;2.90;;
68247;SDS011;55064;49.636;12.164;2022-08-11T16:37:59;6.72;;;2.72;;
68247;SDS011;55064;49.636;12.164;2022-08-11T16:40:45;8.60;;;2.53;;
68247;SDS011;55064;49.636;12.164;2022-08-11T16:43:17;6.72;;;2.92;;
68247;SDS011;55064;49.636;12.164;2022-08-11T16:46:08;5.93;;;2.57;;
68247;SDS011;55064;49.636;12.164;2022-08-11T16:48:54;5.22;;;2.63;;
68247;SDS011;55064;49.636;12.164;2022-08-11T16:51:24;8.15;;;2.75;;
68247;SDS011;55064;49.636;12.164;2022-08-11T16:53:52;6.80;;;3.17;;
68247;SDS011;55064;49.636;12.164;2022-08-11T16:56:21;6.10;;;3.47;;
68247;SDS011;55064;49.636;12.164;2022-08-11T16:58:54;6.85;;;4.00;;
68247;SDS011;55064;49.636;12.164;2022-08-11T17:02:23;5.18;;;3.03;;
68247;SDS011;55064;49.636;12.164;2022-08-11T17:07:33;6.15;;;3.03;;
68247;SDS011;55064;49.636;12.164;2022-08-11T17:10:55;7.47;;;2.80;;
68247;SDS011;55064;49.636;12.164;2022-08-11T17:13:34;7.07;;;2.85;;
68247;SDS011;55064;49.636;12.164;2022-08-11T17:16:06;5.57;;;3.10;;
68247;SDS011;55064;49.636;12.164;2022-08-11T17:21:04;5.60;;;2.67;;
68247;SDS011;55064;49.636;12.164;2022-08-11T17:23:36;7.90;;;2.93;;
68247;SDS011;55064;49.636;12.164;2022-08-11T17:26:29;5.20;;;2.53;;
68247;SDS011;55064;49.636;12.164;2022-08-11T17:29:17;5.85;;;2.90;;
68247;SDS011;55064;49.636;12.164;2022-08-11T17:31:47;5.63;;;2.75;;
68247;SDS011;55064;49.636;12.164;2022-08-11T17:34:33;7.80;;;3.53;;
68247;SDS011;55064;49.636;12.164;2022-08-11T17:37:18;6.73;;;3.30;;
68247;SDS011;55064;49.636;12.164;2022-08-11T17:39:45;5.57;;;3.13;;
68247;SDS011;55064;49.636;12.164;2022-08-11T17:42:15;6.07;;;2.83;;
68247;SDS011;55064;49.636;12.164;2022-08-11T17:45:00;6.28;;;2.85;;
68247;SDS011;55064;49.636;12.164;2022-08-11T17:47:46;6.93;;;3.10;;
68247;SDS011;55064;49.636;12.164;2022-08-11T17:50:31;7.60;;;3.10;;
68247;SDS011;55064;49.636;12.164;2022-08-11T17:53:01;6.65;;;3.00;;
68247;SDS011;55064;49.636;12.164;2022-08-11T17:55:45;8.63;;;3.17;;
68247;SDS011;55064;49.636;12.164;2022-08-11T17:58:31;9.50;;;3.00;;
68247;SDS011;55064;49.636;12.164;2022-08-11T18:01:17;5.97;;;2.85;;
68247;SDS011;55064;49.636;12.164;2022-08-11T18:03:43;9.50;;;3.20;;
68247;SDS011;55064;49.636;12.164;2022-08-11T18:06:10;7.18;;;3.35;;
68247;SDS011;55064;49.636;12.164;2022-08-11T18:08:45;5.75;;;2.90;;
68247;SDS011;55064;49.636;12.164;2022-08-11T18:11:31;7.55;;;3.22;;
68247;SDS011;55064;49.636;12.164;2022-08-11T18:14:17;6.78;;;2.97;;
68247;SDS011;55064;49.636;12.164;2022-08-11T18:17:02;5.57;;;3.07;;
68247;SDS011;55064;49.636;12.164;2022-08-11T18:19:46;7.65;;;3.35;;
68247;SDS011;55064;49.636;12.164;2022-08-11T18:22:32;7.35;;;3.28;;
68247;SDS011;55064;49.636;12.164;2022-08-11T18:25:20;7.30;;;3.30;;
68247;SDS011;55064;49.636;12.164;2022-08-11T18:28:11;7.15;;;3.10;;
68247;SDS011;55064;49.636;12.164;2022-08-11T18:30:58;6.17;;;3.10;;
68247;SDS011;55064;49.636;12.164;2022-08-11T18:33:53;7.95;;;2.97;;
68247;SDS011;55064;49.636;12.164;2022-08-11T18:36:48;6.88;;;3.15;;
68247;SDS011;55064;49.636;12.164;2022-08-11T18:39:36;6.97;;;3.15;;
68247;SDS011;55064;49.636;12.164;2022-08-11T18:42:26;6.05;;;2.80;;
68247;SDS011;55064;49.636;12.164;2022-08-11T18:45:17;8.07;;;3.00;;
68247;SDS011;55064;49.636;12.164;2022-08-11T18:48:04;5.65;;;2.80;;
68247;SDS011;55064;49.636;12.164;2022-08-11T18:50:52;7.25;;;2.88;;
68247;SDS011;55064;49.636;12.164;2022-08-11T18:53:42;8.23;;;2.60;;
68247;SDS011;55064;49.636;12.164;2022-08-11T18:56:29;5.50;;;2.47;;
68247;SDS011;55064;49.636;12.164;2022-08-11T18:59:19;6.20;;;2.90;;
68247;SDS011;55064;49.636;12.164;2022-08-11T19:02:07;5.65;;;2.67;;
68247;SDS011;55064;49.636;12.164;2022-08-11T19:04:54;6.10;;;2.40;;
68247;SDS011;55064;49.636;12.164;2022-08-11T19:07:40;7.35;;;2.67;;
68247;SDS011;55064;49.636;12.164;2022-08-11T19:10:28;6.50;;;2.70;;
68247;SDS011;55064;49.636;12.164;2022-08-11T19:13:15;5.90;;;2.47;;
68247;SDS011;55064;49.636;12.164;2022-08-11T19:16:01;5.68;;;3.00;;
68247;SDS011;55064;49.636;12.164;2022-08-11T19:18:47;5.40;;;2.70;;
68247;SDS011;55064;49.636;12.164;2022-08-11T19:21:32;6.53;;;2.50;;
68247;SDS011;55064;49.636;12.164;2022-08-11T19:24:31;6.47;;;2.42;;
68247;SDS011;55064;49.636;12.164;2022-08-11T19:27:17;7.13;;;2.97;;
68247;SDS011;55064;49.636;12.164;2022-08-11T19:30:06;5.10;;;2.80;;
68247;SDS011;55064;49.636;12.164;2022-08-11T19:32:53;7.20;;;2.67;;
68247;SDS011;55064;49.636;12.164;2022-08-11T19:35:50;5.90;;;2.78;;
68247;SDS011;55064;49.636;12.164;2022-08-11T19:38:37;6.38;;;2.40;;